createdAt,value
2023-11-30T00:02:58.189Z,97006.63
2023-11-30T00:05:59.879Z,97010.97
2023-11-30T00:09:04.823Z,97008.44
2023-11-30T00:12:08.468Z,97008.47
2023-11-30T00:15:11.014Z,97007.66
2023-11-30T00:18:13.174Z,97005.91
2023-11-30T00:21:15.172Z,97010.28
2023-11-30T00:24:17.352Z,97017.25
2023-11-30T00:27:20.645Z,97015.47
2023-11-30T00:30:22.596Z,97016.34
2023-11-30T00:33:24.746Z,97015.38
2023-11-30T00:36:26.827Z,97016.25
2023-11-30T00:39:28.893Z,97026.72
2023-11-30T00:42:32.181Z,97011.06
2023-11-30T00:45:34.135Z,97005.06
2023-11-30T00:48:36.583Z,97015.38
2023-11-30T00:51:38.553Z,97012.75
2023-11-30T00:54:40.514Z,97010.16
2023-11-30T00:57:43.805Z,97017.91
2023-11-30T01:00:45.744Z,97018.91
2023-11-30T01:03:48.879Z,97012.75
2023-11-30T01:06:51.314Z,97025.69
2023-11-30T01:09:53.266Z,97017.91
2023-11-30T01:12:56.569Z,97025.00
2023-11-30T01:15:58.698Z,97028.38
2023-11-30T01:19:00.821Z,97024.88
2023-11-30T01:22:03.046Z,97028.38
2023-11-30T01:25:05.815Z,97025.91
2023-11-30T01:28:09.155Z,97022.38
2023-11-30T01:31:10.919Z,97024.16
2023-11-30T01:34:12.985Z,97031.09
2023-11-30T01:37:15.000Z,97029.47
2023-11-30T01:40:17.371Z,97026.88
2023-11-30T01:43:22.755Z,97027.72
2023-11-30T01:46:24.692Z,97007.91
2023-11-30T01:49:28.403Z,97018.13
2023-11-30T01:52:30.840Z,97024.22
2023-11-30T01:55:33.583Z,97017.25
2023-11-30T01:58:39.787Z,97019.84
2023-11-30T02:01:43.223Z,97014.63
2023-11-30T02:04:49.900Z,97012.00
2023-11-30T02:07:52.106Z,97011.16
2023-11-30T02:10:53.920Z,97009.44
2023-11-30T02:13:57.494Z,97010.38
2023-11-30T02:16:59.400Z,97003.44
2023-11-30T02:20:03.762Z,97000.00
2023-11-30T02:23:07.194Z,97001.72
2023-11-30T02:26:10.289Z,96996.59
2023-11-30T02:29:16.606Z,96994.91
2023-11-30T02:32:18.732Z,96987.25
2023-11-30T02:35:20.776Z,96987.34
2023-11-30T02:38:24.193Z,96975.34
2023-11-30T02:41:26.193Z,96965.06
2023-11-30T02:44:28.361Z,96964.50
2023-11-30T02:47:30.030Z,96965.59
2023-11-30T02:50:32.115Z,96964.91
2023-11-30T02:53:35.294Z,96956.44
2023-11-30T02:56:40.476Z,96938.81
2023-11-30T02:59:42.388Z,96950.91
2023-11-30T03:02:45.721Z,96945.75
2023-11-30T03:05:47.686Z,96954.56
2023-11-30T03:08:51.966Z,96950.97
2023-11-30T03:11:54.071Z,96951.81
2023-11-30T03:14:55.944Z,96954.44
2023-11-30T03:17:58.045Z,96949.09
2023-11-30T03:20:59.746Z,96949.19
2023-11-30T03:24:03.392Z,96946.75
2023-11-30T03:27:05.388Z,96935.44
2023-11-30T03:30:08.747Z,96934.63
2023-11-30T03:33:10.800Z,96937.19
2023-11-30T03:36:12.678Z,96933.69
2023-11-30T03:39:16.053Z,96935.34
2023-11-30T03:42:18.063Z,96932.66
2023-11-30T03:45:20.154Z,96925.66
2023-11-30T03:48:22.098Z,96924.53
2023-11-30T03:51:24.414Z,96918.34
2023-11-30T03:54:27.794Z,96919.91
2023-11-30T03:57:29.959Z,96925.13
2023-11-30T04:00:31.960Z,96930.00
2023-11-30T04:03:34.090Z,96927.47
2023-11-30T04:06:36.115Z,96936.13
2023-11-30T04:09:39.639Z,96942.22
2023-11-30T04:12:42.061Z,96938.69
2023-11-30T04:15:44.346Z,96942.03
2023-11-30T04:18:46.452Z,96935.91
2023-11-30T04:21:48.414Z,96933.31
2023-11-30T04:24:52.290Z,96928.97
2023-11-30T04:27:54.360Z,96924.59
2023-11-30T04:30:57.917Z,96922.88
2023-11-30T04:34:00.498Z,96931.47
2023-11-30T04:37:02.452Z,96926.28
2023-11-30T04:40:07.575Z,96916.72
2023-11-30T04:43:09.643Z,96924.47
2023-11-30T04:46:11.859Z,96923.56
2023-11-30T04:49:14.147Z,96921.78
2023-11-30T04:52:19.021Z,96925.25
2023-11-30T04:55:22.511Z,96933.81
2023-11-30T04:58:25.028Z,96925.34
2023-11-30T05:01:27.001Z,96938.31
2023-11-30T05:04:28.981Z,96940.94
2023-11-30T05:07:30.828Z,96945.28
2023-11-30T05:10:34.230Z,96941.22
2023-11-30T05:13:36.459Z,96949.16
2023-11-30T05:16:38.509Z,96939.06
2023-11-30T05:19:40.292Z,96946.09
2023-11-30T05:22:42.199Z,96940.19
2023-11-30T05:25:45.727Z,96950.59
2023-11-30T05:28:47.882Z,96945.47
2023-11-30T05:31:49.596Z,96945.38
2023-11-30T05:34:52.932Z,96944.50
2023-11-30T05:37:54.945Z,96950.59
2023-11-30T05:40:59.523Z,96948.59
2023-11-30T05:44:01.604Z,96939.88
2023-11-30T05:47:03.423Z,96940.63
2023-11-30T05:50:06.271Z,96948.50
2023-11-30T05:53:08.359Z,96934.50
2023-11-30T05:56:11.589Z,96944.84
2023-11-30T05:59:13.486Z,96935.31
2023-11-30T06:02:18.603Z,96947.41
2023-11-30T06:05:20.749Z,96948.16
2023-11-30T06:08:22.416Z,96951.59
2023-11-30T06:11:25.618Z,96944.56
2023-11-30T06:14:27.426Z,96942.81
2023-11-30T06:17:29.411Z,96953.22
2023-11-30T06:20:32.422Z,96954.13
2023-11-30T06:23:34.352Z,96961.84
2023-11-30T06:26:37.651Z,96954.75
2023-11-30T06:29:39.506Z,96960.03
2023-11-30T06:32:41.473Z,96963.47
2023-11-30T06:35:43.857Z,96962.59
2023-11-30T06:38:46.076Z,96956.56
2023-11-30T06:41:50.603Z,96955.59
2023-11-30T06:44:54.512Z,96946.94
2023-11-30T06:47:56.596Z,96958.22
2023-11-30T06:50:58.297Z,96957.22
2023-11-30T06:54:00.498Z,96960.56
2023-11-30T06:57:03.959Z,96952.75
2023-11-30T07:00:10.581Z,96958.94
2023-11-30T07:03:14.355Z,96968.50
2023-11-30T07:06:16.705Z,96960.75
2023-11-30T07:09:18.780Z,96956.41
2023-11-30T07:12:21.909Z,96955.50
2023-11-30T07:15:23.830Z,96959.88
2023-11-30T07:18:25.975Z,96958.94
2023-11-30T07:21:29.160Z,96963.31
2023-11-30T07:24:30.986Z,96957.25
2023-11-30T07:27:34.298Z,96962.44
2023-11-30T07:30:37.571Z,96961.66
2023-11-30T07:33:39.527Z,96965.94
2023-11-30T07:36:42.023Z,96963.31
2023-11-30T07:39:43.962Z,96967.59
2023-11-30T07:42:47.263Z,96960.56
2023-11-30T07:45:50.125Z,96963.13
2023-11-30T07:48:52.140Z,96960.50
2023-11-30T07:51:54.045Z,96959.56
2023-11-30T07:54:56.089Z,96964.75
2023-11-30T07:57:59.455Z,96965.66
2023-11-30T08:01:01.982Z,96961.28
2023-11-30T08:04:04.859Z,96960.38
2023-11-30T08:07:06.769Z,96960.41
2023-11-30T08:10:09.021Z,96964.66
2023-11-30T08:13:14.118Z,96966.38
2023-11-30T08:16:16.199Z,96973.44
2023-11-30T08:19:17.978Z,96970.75
2023-11-30T08:22:19.925Z,96973.41
2023-11-30T08:25:21.663Z,96966.50
2023-11-30T08:28:25.907Z,96977.97
2023-11-30T08:31:28.405Z,96975.44
2023-11-30T08:34:30.313Z,96970.31
2023-11-30T08:37:32.319Z,96958.94
2023-11-30T08:40:34.342Z,96962.44
2023-11-30T08:43:37.712Z,96964.97
2023-11-30T08:46:39.837Z,96965.88
2023-11-30T08:49:41.807Z,96960.69
2023-11-30T08:52:43.646Z,96967.59
2023-11-30T08:55:46.760Z,96960.75
2023-11-30T08:58:50.525Z,96967.78
2023-11-30T09:01:52.858Z,96965.16
2023-11-30T09:04:55.047Z,96964.31
2023-11-30T09:07:56.807Z,96962.44
2023-11-30T09:10:58.681Z,96960.59
2023-11-30T09:14:02.050Z,96949.84
2023-11-30T09:17:05.582Z,96941.28
2023-11-30T09:20:09.700Z,96947.44
2023-11-30T09:23:11.559Z,96945.13
2023-11-30T09:26:13.521Z,96943.41
2023-11-30T09:29:16.749Z,96946.56
2023-11-30T09:32:18.680Z,96944.63
2023-11-30T09:35:20.556Z,96947.06
2023-11-30T09:38:22.625Z,96940.59
2023-11-30T09:41:24.747Z,96934.69
2023-11-30T09:44:28.140Z,96931.19
2023-11-30T09:47:30.135Z,96931.88
2023-11-30T09:50:32.412Z,96929.53
2023-11-30T09:53:34.328Z,96928.91
2023-11-30T09:56:36.331Z,96927.66
2023-11-30T09:59:40.153Z,96941.25
2023-11-30T10:02:51.595Z,96921.88
2023-11-30T10:05:53.708Z,96916.81
2023-11-30T10:09:02.058Z,96917.19
2023-11-30T10:12:05.030Z,96917.00
2023-11-30T10:15:10.697Z,96914.16
2023-11-30T10:18:13.447Z,96909.47
2023-11-30T10:21:15.358Z,96898.13
2023-11-30T10:24:17.269Z,96907.03
2023-11-30T10:27:22.506Z,96904.88
2023-11-30T10:30:26.977Z,96897.47
2023-11-30T10:33:30.311Z,96894.75
2023-11-30T10:36:33.429Z,96892.38
2023-11-30T10:39:42.748Z,96894.69
2023-11-30T10:42:48.581Z,96886.09
2023-11-30T10:45:55.206Z,96891.59
2023-11-30T10:48:57.578Z,96893.56
2023-11-30T10:52:03.800Z,96884.72
2023-11-30T10:55:10.415Z,96884.69
2023-11-30T10:58:12.893Z,96877.59
2023-11-30T11:01:16.082Z,96873.00
2023-11-30T11:04:18.041Z,96873.06
2023-11-30T11:07:20.250Z,96867.53
2023-11-30T11:10:23.429Z,96870.28
2023-11-30T11:13:25.998Z,96866.44
2023-11-30T11:16:37.844Z,96873.19
2023-11-30T11:19:41.504Z,96871.09
2023-11-30T11:22:44.105Z,96866.84
2023-11-30T11:25:47.745Z,96869.84
2023-11-30T11:28:50.741Z,96861.34
2023-11-30T11:31:55.093Z,96871.66
2023-11-30T11:34:57.461Z,96874.03
2023-11-30T11:38:00.330Z,96881.13
2023-11-30T11:41:02.512Z,96876.19
2023-11-30T11:44:04.460Z,96871.84
2023-11-30T11:47:08.000Z,96880.78
2023-11-30T11:50:14.828Z,96864.84
2023-11-30T11:53:16.982Z,96878.50
2023-11-30T11:56:18.988Z,96874.66
2023-11-30T11:59:22.259Z,96888.34
2023-11-30T12:02:26.436Z,96877.66
2023-11-30T12:05:28.841Z,96864.69
2023-11-30T12:08:31.475Z,96877.50
2023-11-30T12:11:33.456Z,96865.09
2023-11-30T12:14:36.246Z,96867.94
2023-11-30T12:17:40.347Z,96877.38
2023-11-30T12:20:44.433Z,96861.28
2023-11-30T12:23:47.340Z,96867.81
2023-11-30T12:26:49.494Z,96870.28
2023-11-30T12:29:51.273Z,96877.25
2023-11-30T12:32:54.632Z,96878.53
2023-11-30T12:35:57.161Z,96875.91
2023-11-30T12:38:59.073Z,96879.19
2023-11-30T12:42:01.896Z,96870.78
2023-11-30T12:45:06.313Z,96878.84
2023-11-30T12:48:09.786Z,96877.19
2023-11-30T12:51:11.838Z,96873.88
2023-11-30T12:54:14.319Z,96860.34
2023-11-30T12:57:16.935Z,96863.41
2023-11-30T13:00:19.949Z,96862.53
2023-11-30T13:03:24.591Z,96858.19
2023-11-30T13:06:26.935Z,96856.00
2023-11-30T13:09:33.714Z,96853.63
2023-11-30T13:12:36.407Z,96844.34
2023-11-30T13:15:38.538Z,96852.13
2023-11-30T13:18:42.231Z,96846.41
2023-11-30T13:21:44.543Z,96852.22
2023-11-30T13:24:46.685Z,96849.41
2023-11-30T13:27:49.004Z,96846.03
2023-11-30T13:30:51.487Z,96831.41
2023-11-30T13:33:55.027Z,96837.44
2023-11-30T13:36:57.382Z,96846.53
2023-11-30T13:39:59.609Z,96838.72
2023-11-30T13:43:01.287Z,96848.63
2023-11-30T13:46:05.905Z,96847.56
2023-11-30T13:49:14.744Z,96850.75
2023-11-30T13:52:17.523Z,96846.84
2023-11-30T13:55:20.234Z,96854.31
2023-11-30T13:58:23.511Z,96842.94
2023-11-30T14:01:25.494Z,96852.66
2023-11-30T14:04:34.260Z,96841.44
2023-11-30T14:07:36.880Z,96838.16
2023-11-30T14:10:40.533Z,96845.75
2023-11-30T14:13:46.048Z,96851.88
2023-11-30T14:16:48.470Z,96852.78
2023-11-30T14:19:52.284Z,96848.94
2023-11-30T14:22:59.359Z,96832.13
2023-11-30T14:26:01.821Z,96849.34
2023-11-30T14:29:04.603Z,96856.59
2023-11-30T14:32:09.252Z,96853.31
2023-11-30T14:35:13.389Z,96838.94
2023-11-30T14:38:15.750Z,96855.19
2023-11-30T14:41:17.996Z,96845.44
2023-11-30T14:44:20.692Z,96842.06
2023-11-30T14:47:27.088Z,96854.50
2023-11-30T14:50:32.424Z,96842.16
2023-11-30T14:53:35.087Z,96859.53
2023-11-30T14:56:37.384Z,96858.00
2023-11-30T14:59:40.337Z,96852.97
2023-11-30T15:02:43.153Z,96852.41
2023-11-30T15:05:47.359Z,96857.91
2023-11-30T15:08:52.407Z,96869.41
2023-11-30T15:11:56.039Z,96864.25
2023-11-30T15:14:58.158Z,96861.94
2023-11-30T15:18:00.204Z,96873.22
2023-11-30T15:21:03.562Z,96874.19
2023-11-30T15:24:06.006Z,96876.19
2023-11-30T15:27:08.071Z,96875.63
2023-11-30T15:30:12.123Z,96879.34
2023-11-30T15:33:17.947Z,96880.53
2023-11-30T15:36:22.124Z,96873.69
2023-11-30T15:39:25.426Z,96890.81
2023-11-30T15:42:27.390Z,96883.94
2023-11-30T15:45:29.703Z,96880.47
2023-11-30T15:48:32.115Z,96889.25
2023-11-30T15:51:39.412Z,96875.59
2023-11-30T15:54:41.738Z,96890.28
2023-11-30T15:57:45.951Z,96889.53
2023-11-30T16:00:49.233Z,96891.19
2023-11-30T16:03:52.206Z,96884.28
2023-11-30T16:06:56.316Z,96898.19
2023-11-30T16:09:58.589Z,96894.63
2023-11-30T16:16:29.072Z,96875.91
2023-11-30T16:19:31.091Z,96886.47
2023-11-30T16:22:34.785Z,96883.91
2023-11-30T16:25:37.018Z,96888.09
2023-11-30T16:28:38.933Z,96887.25
2023-11-30T16:31:42.795Z,96878.59
2023-11-30T16:34:44.704Z,96888.38
2023-11-30T16:37:47.912Z,96892.03
2023-11-30T16:40:49.802Z,96888.44
2023-11-30T16:43:51.752Z,96882.50
2023-11-30T16:46:53.771Z,96881.72
2023-11-30T16:49:55.868Z,96881.72
2023-11-30T16:52:59.071Z,96880.97
2023-11-30T16:56:01.091Z,96881.13
2023-11-30T16:59:03.110Z,96883.00
2023-11-30T17:02:05.282Z,96876.16
2023-11-30T17:05:08.321Z,96884.94
2023-11-30T17:08:11.786Z,96873.75
2023-11-30T17:11:13.862Z,96877.38
2023-11-30T17:14:15.769Z,96871.50
2023-11-30T17:17:17.772Z,96869.84
2023-11-30T17:20:20.716Z,96874.22
2023-11-30T17:23:23.926Z,96872.47
2023-11-30T17:26:25.842Z,96879.81
2023-11-30T17:29:27.938Z,96880.50
2023-11-30T17:32:29.830Z,96873.13
2023-11-30T17:35:32.418Z,96878.53
2023-11-30T17:38:37.562Z,96879.38
2023-11-30T17:41:42.422Z,96884.53
2023-11-30T17:44:44.376Z,96885.47
2023-11-30T17:47:46.715Z,96880.06
2023-11-30T17:50:48.833Z,96881.00
2023-11-30T17:53:52.248Z,96889.59
2023-11-30T17:56:56.900Z,96888.72
2023-11-30T17:59:58.901Z,96889.66
2023-11-30T18:03:00.940Z,96889.81
2023-11-30T18:06:05.525Z,96890.66
2023-11-30T18:09:08.901Z,96896.69
2023-11-30T18:12:10.917Z,96895.28
2023-11-30T18:15:13.017Z,96903.88
2023-11-30T18:18:14.947Z,96893.44
2023-11-30T18:21:16.930Z,96897.03
2023-11-30T18:24:20.415Z,96904.09
2023-11-30T18:27:22.843Z,96901.50
2023-11-30T18:30:25.015Z,96902.34
2023-11-30T18:33:26.913Z,96899.69
2023-11-30T18:36:29.042Z,96895.63
2023-11-30T18:39:33.340Z,96907.91
2023-11-30T18:42:36.055Z,96912.22
2023-11-30T18:45:39.815Z,96921.94
2023-11-30T18:48:42.365Z,96911.47
2023-11-30T18:51:44.420Z,96909.81
2023-11-30T18:54:49.321Z,96919.22
2023-11-30T18:57:53.563Z,96919.19
2023-11-30T19:00:58.559Z,96916.56
2023-11-30T19:04:00.693Z,96922.75
2023-11-30T19:07:02.850Z,96923.59
2023-11-30T19:10:06.876Z,96927.94
2023-11-30T19:13:08.858Z,96929.78
2023-11-30T19:16:16.807Z,96928.16
2023-11-30T19:19:19.054Z,96931.63
2023-11-30T19:22:22.803Z,96934.09
2023-11-30T19:25:26.299Z,96931.53
2023-11-30T19:28:28.809Z,96922.91
2023-11-30T19:31:31.377Z,96924.66
2023-11-30T19:34:33.688Z,96926.47
2023-11-30T19:37:35.580Z,96927.28
2023-11-30T19:40:38.805Z,96924.13
2023-11-30T19:43:40.879Z,96935.47
2023-11-30T19:46:43.852Z,96938.97
2023-11-30T19:49:45.781Z,96931.78
2023-11-30T19:52:47.676Z,96931.25
2023-11-30T19:55:52.135Z,96937.22
2023-11-30T19:58:54.209Z,96934.59
2023-11-30T20:01:58.741Z,96939.91
2023-11-30T20:05:00.971Z,96947.66
2023-11-30T20:08:02.754Z,96950.97
2023-11-30T20:11:10.923Z,96948.41
2023-11-30T20:14:12.767Z,96957.28
2023-11-30T20:17:14.847Z,96959.03
2023-11-30T20:20:17.361Z,96967.38
2023-11-30T20:23:19.751Z,96969.22
2023-11-30T20:26:23.420Z,96958.84
2023-11-30T20:29:27.287Z,96979.59
2023-11-30T20:32:35.501Z,96969.25
2023-11-30T20:35:37.773Z,96973.28
2023-11-30T20:38:40.799Z,96967.03
2023-11-30T20:41:47.424Z,96962.47
2023-11-30T20:44:52.992Z,96966.94
2023-11-30T20:47:55.250Z,96971.56
2023-11-30T20:50:57.418Z,96970.97
2023-11-30T20:53:59.363Z,96977.09
2023-11-30T20:57:05.400Z,96979.69
2023-11-30T21:00:09.859Z,96982.03
2023-11-30T21:03:11.989Z,96969.09
2023-11-30T21:06:14.145Z,96991.47
2023-11-30T21:09:16.061Z,96988.75
2023-11-30T21:12:19.451Z,96986.88
2023-11-30T21:15:21.521Z,96975.69
2023-11-30T21:18:23.637Z,96987.66
2023-11-30T21:21:25.845Z,96982.53
2023-11-30T21:24:28.748Z,96993.66
2023-11-30T21:27:33.217Z,96990.28
2023-11-30T21:30:35.250Z,96988.44
2023-11-30T21:33:37.462Z,96990.16
2023-11-30T21:36:43.463Z,96978.78
2023-11-30T21:39:45.905Z,96982.16
2023-11-30T21:42:50.290Z,96973.59
2023-11-30T21:45:52.465Z,96958.16
2023-11-30T21:48:54.275Z,96985.75
2023-11-30T21:51:56.795Z,96985.84
2023-11-30T21:54:58.757Z,96969.56
2023-11-30T21:58:02.173Z,96984.31
2023-11-30T22:01:06.029Z,96975.78
2023-11-30T22:04:08.336Z,96987.09
2023-11-30T22:07:10.264Z,96983.66
2023-11-30T22:10:13.300Z,96985.53
2023-11-30T22:13:16.726Z,96988.28
2023-11-30T22:16:26.022Z,96987.53
2023-11-30T22:19:31.596Z,96980.69
2023-11-30T22:22:34.589Z,96985.22
2023-11-30T22:25:36.731Z,96987.00
2023-11-30T22:28:40.140Z,96988.75
2023-11-30T22:31:42.592Z,96982.84
2023-11-30T22:34:44.937Z,96990.69
2023-11-30T22:37:47.098Z,96993.38
2023-11-30T22:40:49.697Z,96993.44
2023-11-30T22:43:53.218Z,96995.91
2023-11-30T22:46:55.404Z,97007.19
2023-11-30T22:49:57.699Z,97002.94
2023-11-30T22:52:59.923Z,97008.06
2023-11-30T22:56:01.967Z,97003.88
2023-11-30T22:59:07.244Z,97002.38
2023-11-30T23:02:09.870Z,96999.84
2023-11-30T23:05:13.326Z,96995.66
2023-11-30T23:08:16.111Z,97004.38
2023-11-30T23:11:18.463Z,97007.88
2023-11-30T23:14:23.623Z,97009.72
2023-11-30T23:17:25.764Z,97014.22
2023-11-30T23:20:27.545Z,97015.94
2023-11-30T23:23:29.580Z,97016.84
2023-11-30T23:26:31.965Z,97019.44
2023-11-30T23:29:37.826Z,97023.84
2023-11-30T23:32:40.312Z,97022.13
2023-11-30T23:35:42.804Z,97016.91
2023-11-30T23:38:45.446Z,97018.66
2023-11-30T23:41:47.557Z,97029.78
2023-11-30T23:44:51.003Z,97033.09
2023-11-30T23:47:53.089Z,97030.47
2023-11-30T23:50:56.913Z,97021.66
2023-11-30T23:53:59.311Z,97022.63
2023-11-30T23:57:01.383Z,97022.69
